Time;durP1;ratioP1;P1;durP2;ratioP2;P2;SDS_P1;SDS_P2;PMS_P1;PMS_P2;Temp;Humidity;BMP_temperature;BMP_pressure;BME280_temperature;BME280_humidity;BME280_pressure;Samples;Min_cycle;Max_cycle;Signal;HPM_P1;HPM_P2
2021/01/12 00:00:16;;;;;;;19.10;16.05;;;;;;;;;;6268588;22;20024;-87
2021/01/12 00:05:50;;;;;;;18.90;16.08;;;;;;;;;;6273249;22;20012;-86
2021/01/12 00:08:17;;;;;;;17.73;14.93;;;;;;;;;;6268023;22;20028;-88
2021/01/12 00:10:43;;;;;;;18.88;16.23;;;;;;;;;;6259034;23;20024;-87
2021/01/12 00:13:31;;;;;;;17.08;14.73;;;;;;;;;;6230639;23;20422;-87
2021/01/12 00:15:57;;;;;;;20.20;15.00;;;;;;;;;;6226229;23;20032;-87
2021/01/12 00:18:23;;;;;;;16.23;13.15;;;;;;;;;;6256718;23;20078;-87
2021/01/12 00:20:49;;;;;;;17.27;14.35;;;;;;;;;;6256751;23;20028;-87
2021/01/12 00:23:25;;;;;;;18.05;14.90;;;;;;;;;;6256694;23;20072;-87
2021/01/12 00:25:53;;;;;;;15.18;13.18;;;;;;;;;;6230461;23;20039;-87
2021/01/12 00:28:19;;;;;;;18.20;14.65;;;;;;;;;;6230166;23;20064;-88
2021/01/12 00:30:46;;;;;;;16.08;13.65;;;;;;;;;;6229927;23;20092;-87
2021/01/12 00:33:21;;;;;;;16.95;13.88;;;;;;;;;;6256708;23;20024;-88
2021/01/12 00:35:49;;;;;;;15.90;13.38;;;;;;;;;;6245640;23;20530;-87
2021/01/12 00:38:15;;;;;;;15.68;13.55;;;;;;;;;;6255881;23;20024;-87
2021/01/12 00:40:41;;;;;;;15.23;13.02;;;;;;;;;;6255479;23;20024;-88
2021/01/12 00:43:11;;;;;;;17.25;14.05;;;;;;;;;;6256245;23;20024;-87
2021/01/12 00:45:37;;;;;;;15.77;13.32;;;;;;;;;;6256507;23;20032;-87
2021/01/12 00:48:03;;;;;;;15.25;12.40;;;;;;;;;;6230305;23;20036;-88
2021/01/12 00:50:30;;;;;;;14.65;12.20;;;;;;;;;;6256920;23;20063;-87
2021/01/12 00:53:18;;;;;;;13.55;11.77;;;;;;;;;;6258160;23;20047;-88
2021/01/12 00:55:44;;;;;;;14.63;12.50;;;;;;;;;;6221021;23;20034;-88
2021/01/12 00:58:10;;;;;;;14.68;12.70;;;;;;;;;;6235587;23;20009;-88
2021/01/12 01:00:36;;;;;;;13.77;12.15;;;;;;;;;;6240429;23;20052;-87
2021/01/12 01:03:03;;;;;;;13.43;11.60;;;;;;;;;;6263218;23;20035;-88
2021/01/12 01:05:29;;;;;;;14.63;12.35;;;;;;;;;;6226022;23;20365;-88
2021/01/12 01:07:56;;;;;;;14.68;12.32;;;;;;;;;;6202049;23;20024;-88
2021/01/12 01:10:21;;;;;;;14.23;12.05;;;;;;;;;;6226973;23;20033;-88
2021/01/12 01:13:00;;;;;;;13.27;11.52;;;;;;;;;;6200887;23;20062;-87
2021/01/12 01:15:26;;;;;;;15.02;12.77;;;;;;;;;;6200017;23;20079;-88
2021/01/12 01:17:52;;;;;;;15.23;13.20;;;;;;;;;;6201556;23;20382;-87
2021/01/12 01:20:19;;;;;;;15.30;12.55;;;;;;;;;;6202183;23;20052;-88
2021/01/12 01:22:45;;;;;;;14.15;11.85;;;;;;;;;;6199937;23;20031;-88
2021/01/12 01:25:11;;;;;;;15.73;12.75;;;;;;;;;;6200462;23;20024;-88
2021/01/12 01:27:38;;;;;;;14.68;13.00;;;;;;;;;;6226688;23;20024;-87
2021/01/12 01:30:07;;;;;;;14.90;13.13;;;;;;;;;;6225245;23;20035;-87
2021/01/12 01:32:41;;;;;;;14.63;13.00;;;;;;;;;;6215347;23;20056;-87
2021/01/12 01:35:08;;;;;;;16.08;12.40;;;;;;;;;;6229962;23;20092;-87
2021/01/12 01:37:43;;;;;;;14.50;12.55;;;;;;;;;;6225541;23;20028;-87
2021/01/12 01:40:09;;;;;;;14.77;13.20;;;;;;;;;;6200868;23;20048;-87
2021/01/12 01:42:36;;;;;;;14.10;12.73;;;;;;;;;;6199917;23;20375;-87
2021/01/12 01:45:09;;;;;;;16.45;13.70;;;;;;;;;;6175093;23;20016;-87
2021/01/12 01:47:42;;;;;;;14.00;12.10;;;;;;;;;;6199570;23;20036;-87
2021/01/12 01:50:13;;;;;;;14.10;12.43;;;;;;;;;;6198202;23;20478;-87
2021/01/12 01:52:50;;;;;;;14.20;12.57;;;;;;;;;;6197530;23;20075;-87
2021/01/12 01:55:16;;;;;;;14.80;12.38;;;;;;;;;;6224658;23;20083;-87
2021/01/12 01:57:42;;;;;;;14.55;13.05;;;;;;;;;;6199339;23;20029;-87
2021/01/12 02:00:34;;;;;;;13.57;11.55;;;;;;;;;;6200238;23;20380;-87
2021/01/12 02:03:00;;;;;;;13.07;11.68;;;;;;;;;;6202447;23;20024;-87
2021/01/12 02:05:30;;;;;;;13.80;11.20;;;;;;;;;;6246502;22;20012;-85
2021/01/12 02:08:08;;;;;;;11.45;10.25;;;;;;;;;;6273920;22;20008;-86
2021/01/12 02:10:40;;;;;;;11.57;10.38;;;;;;;;;;6261304;22;20051;-87
2021/01/12 02:13:10;;;;;;;12.27;10.90;;;;;;;;;;6231154;23;20081;-87
2021/01/12 02:19:00;;;;;;;11.25;10.05;;;;;;;;;;6273250;22;20046;-88
2021/01/12 02:21:41;;;;;;;11.40;10.20;;;;;;;;;;6260350;22;20028;-88
2021/01/12 02:24:08;;;;;;;11.52;10.23;;;;;;;;;;6229710;23;20029;-88
2021/01/12 02:27:06;;;;;;;11.20;10.05;;;;;;;;;;6255370;23;20162;-88
2021/01/12 02:29:32;;;;;;;12.52;10.85;;;;;;;;;;6230236;23;20028;-88
2021/01/12 02:31:58;;;;;;;12.05;10.52;;;;;;;;;;6232491;23;20032;-87
2021/01/12 02:34:28;;;;;;;12.25;10.73;;;;;;;;;;6231515;23;20024;-88
2021/01/12 02:36:59;;;;;;;13.05;11.50;;;;;;;;;;6258535;23;20031;-88
2021/01/12 02:39:25;;;;;;;14.52;10.68;;;;;;;;;;6257204;23;20031;-88
2021/01/12 02:41:52;;;;;;;13.88;11.57;;;;;;;;;;6257433;23;20068;-88
2021/01/12 02:44:50;;;;;;;13.00;11.50;;;;;;;;;;6256567;23;20025;-88
2021/01/12 02:47:17;;;;;;;13.00;11.65;;;;;;;;;;6242838;23;20015;-88
2021/01/12 02:49:43;;;;;;;12.88;10.63;;;;;;;;;;6242001;23;20051;-88
2021/01/12 02:52:13;;;;;;;12.73;11.05;;;;;;;;;;6271004;22;20036;-88
2021/01/12 02:54:42;;;;;;;13.60;11.43;;;;;;;;;;6270777;22;20043;-88
2021/01/12 02:57:08;;;;;;;14.25;11.95;;;;;;;;;;6271342;22;20007;-87
2021/01/12 02:59:34;;;;;;;14.88;12.85;;;;;;;;;;6274326;22;20043;-88
2021/01/12 03:02:01;;;;;;;14.57;12.77;;;;;;;;;;6264421;22;20024;-88
2021/01/12 03:04:28;;;;;;;14.60;11.18;;;;;;;;;;6258841;23;20044;-88
2021/01/12 03:06:54;;;;;;;12.60;10.82;;;;;;;;;;6256040;23;20028;-88
2021/01/12 03:09:20;;;;;;;12.65;10.25;;;;;;;;;;6256383;23;20046;-88
2021/01/12 03:11:51;;;;;;;12.13;10.82;;;;;;;;;;6255631;23;20028;-88
2021/01/12 03:14:21;;;;;;;11.88;10.48;;;;;;;;;;6230241;23;20043;-88
2021/01/12 03:16:47;;;;;;;11.23;9.85;;;;;;;;;;6230169;23;20019;-88
2021/01/12 03:19:14;;;;;;;11.32;10.07;;;;;;;;;;6230632;23;20055;-88
2021/01/12 03:21:40;;;;;;;11.40;10.18;;;;;;;;;;6229238;23;20027;-88
2021/01/12 03:24:10;;;;;;;12.50;10.48;;;;;;;;;;6229793;23;20055;-88
2021/01/12 03:26:36;;;;;;;11.27;10.07;;;;;;;;;;6255669;23;20031;-88
2021/01/12 03:29:02;;;;;;;10.80;9.70;;;;;;;;;;6255193;23;20028;-87
2021/01/12 03:31:29;;;;;;;10.05;9.05;;;;;;;;;;6257527;23;20036;-87
2021/01/12 03:34:09;;;;;;;10.05;9.02;;;;;;;;;;6257199;23;20020;-88
2021/01/12 03:36:35;;;;;;;10.45;9.30;;;;;;;;;;6228336;23;20390;-87
2021/01/12 03:39:05;;;;;;;12.52;10.57;;;;;;;;;;6255655;23;20047;-87
2021/01/12 03:41:38;;;;;;;10.35;9.18;;;;;;;;;;6256221;23;20024;-87
2021/01/12 03:44:06;;;;;;;9.60;8.68;;;;;;;;;;6257112;23;20020;-87
2021/01/12 03:46:35;;;;;;;9.52;8.52;;;;;;;;;;6231590;23;20299;-86
2021/01/12 03:49:02;;;;;;;10.25;9.15;;;;;;;;;;6236721;23;20042;-86
2021/01/12 03:51:40;;;;;;;9.65;8.65;;;;;;;;;;6245263;23;20051;-86
2021/01/12 03:54:06;;;;;;;11.65;9.05;;;;;;;;;;6269936;22;20063;-87
2021/01/12 03:56:34;;;;;;;8.55;7.68;;;;;;;;;;6237924;23;20024;-87
2021/01/12 03:59:03;;;;;;;8.75;7.85;;;;;;;;;;6255337;23;20024;-87
2021/01/12 04:01:40;;;;;;;9.05;7.68;;;;;;;;;;6253649;23;20026;-87
2021/01/12 04:04:06;;;;;;;7.95;7.15;;;;;;;;;;6253674;23;20085;-87
2021/01/12 04:06:33;;;;;;;9.45;8.48;;;;;;;;;;6254054;23;20064;-85
2021/01/12 04:08:59;;;;;;;8.60;7.72;;;;;;;;;;6228347;23;20035;-86
2021/01/12 04:11:28;;;;;;;9.68;8.60;;;;;;;;;;6255056;23;20402;-87
2021/01/12 04:13:55;;;;;;;9.40;8.10;;;;;;;;;;6254239;23;20043;-87
2021/01/12 04:16:24;;;;;;;9.98;8.38;;;;;;;;;;6257138;23;20035;-87
2021/01/12 04:19:02;;;;;;;9.55;8.23;;;;;;;;;;6256284;23;20051;-87
2021/01/12 04:21:32;;;;;;;9.68;8.68;;;;;;;;;;6254045;23;20035;-87
2021/01/12 04:24:00;;;;;;;9.85;8.85;;;;;;;;;;6255967;23;20024;-86
2021/01/12 04:26:33;;;;;;;9.60;8.23;;;;;;;;;;6255918;23;20028;-87
2021/01/12 04:29:05;;;;;;;10.90;9.80;;;;;;;;;;6231934;23;20356;-86
2021/01/12 04:31:31;;;;;;;9.43;8.43;;;;;;;;;;6230750;23;20019;-86
2021/01/12 04:33:57;;;;;;;9.70;8.70;;;;;;;;;;6256689;23;20039;-86
2021/01/12 04:36:23;;;;;;;9.15;8.15;;;;;;;;;;6259104;23;20024;-87
2021/01/12 04:38:49;;;;;;;8.73;7.72;;;;;;;;;;6258545;23;20050;-87
2021/01/12 04:41:17;;;;;;;8.73;7.60;;;;;;;;;;6256496;23;20024;-87
2021/01/12 04:43:42;;;;;;;8.75;7.85;;;;;;;;;;6230247;23;20024;-87
2021/01/12 04:46:11;;;;;;;8.18;7.38;;;;;;;;;;6231543;23;20310;-86
2021/01/12 04:48:50;;;;;;;9.45;8.02;;;;;;;;;;6257139;23;20200;-87
2021/01/12 04:51:16;;;;;;;8.45;7.53;;;;;;;;;;6256091;23;20024;-86
2021/01/12 04:53:46;;;;;;;8.52;7.63;;;;;;;;;;6228241;23;20110;-86
2021/01/12 04:56:14;;;;;;;9.25;7.25;;;;;;;;;;6229788;23;20329;-87
2021/01/12 04:58:41;;;;;;;8.70;7.80;;;;;;;;;;6253570;23;20408;-87
2021/01/12 05:01:10;;;;;;;8.40;7.53;;;;;;;;;;6254615;23;20083;-87
2021/01/12 05:03:39;;;;;;;9.05;8.15;;;;;;;;;;6229633;23;20103;-87
2021/01/12 05:06:05;;;;;;;8.38;7.32;;;;;;;;;;6257171;23;20028;-87
2021/01/12 05:08:31;;;;;;;8.65;7.75;;;;;;;;;;6236988;23;20072;-86
2021/01/12 05:10:58;;;;;;;8.57;7.68;;;;;;;;;;6243197;23;20012;-87
2021/01/12 05:13:26;;;;;;;9.05;7.75;;;;;;;;;;6269177;22;20028;-86
2021/01/12 05:15:52;;;;;;;8.57;7.63;;;;;;;;;;6270916;22;20035;-85
2021/01/12 05:18:19;;;;;;;8.70;7.80;;;;;;;;;;6270154;22;20016;-86
2021/01/12 05:20:54;;;;;;;9.63;8.00;;;;;;;;;;6243836;22;20027;-86
2021/01/12 05:23:23;;;;;;;7.95;7.15;;;;;;;;;;6269762;23;20067;-86
2021/01/12 05:25:51;;;;;;;9.38;8.32;;;;;;;;;;6266222;22;20051;-87
2021/01/12 05:28:19;;;;;;;46.80;10.45;;;;;;;;;;6254862;23;20035;-87
2021/01/12 05:30:48;;;;;;;196.52;16.35;;;;;;;;;;6255555;23;20023;-87
2021/01/12 05:33:19;;;;;;;32.30;8.85;;;;;;;;;;6254602;23;20124;-87
2021/01/12 05:35:46;;;;;;;24.00;8.70;;;;;;;;;;6237244;23;20024;-86
2021/01/12 05:38:23;;;;;;;12.60;6.85;;;;;;;;;;6268403;23;20016;-86
2021/01/12 05:40:57;;;;;;;7.80;7.00;;;;;;;;;;6233854;23;20283;-87
2021/01/12 05:43:32;;;;;;;8.25;6.55;;;;;;;;;;6230595;23;20025;-88
2021/01/12 05:46:09;;;;;;;9.15;7.07;;;;;;;;;;6232033;23;20054;-87
2021/01/12 05:48:36;;;;;;;8.20;7.38;;;;;;;;;;6266995;22;20220;-86
2021/01/12 05:51:04;;;;;;;8.48;7.32;;;;;;;;;;6242218;23;20012;-86
2021/01/12 05:53:43;;;;;;;8.55;7.20;;;;;;;;;;6233684;23;20364;-86
2021/01/12 05:56:11;;;;;;;6.68;5.97;;;;;;;;;;6229803;23;20035;-87
2021/01/12 05:58:42;;;;;;;41.00;9.90;;;;;;;;;;6252458;23;20024;-86
2021/01/12 06:01:23;;;;;;;6.55;5.38;;;;;;;;;;6227709;23;20052;-86
2021/01/12 06:03:49;;;;;;;7.38;5.93;;;;;;;;;;6252534;23;20032;-86
2021/01/12 06:06:18;;;;;;;7.22;6.00;;;;;;;;;;6228136;23;20497;-86
2021/01/12 06:08:48;;;;;;;6.32;5.35;;;;;;;;;;6255608;22;20028;-85
2021/01/12 06:11:15;;;;;;;6.82;5.70;;;;;;;;;;6225270;23;20063;-85
2021/01/12 06:13:49;;;;;;;6.50;4.38;;;;;;;;;;6257670;23;20016;-86
2021/01/12 06:16:17;;;;;;;4.25;3.00;;;;;;;;;;6253337;23;20024;-86
2021/01/12 06:18:54;;;;;;;4.22;2.60;;;;;;;;;;6253011;23;20024;-86
2021/01/12 06:21:20;;;;;;;3.60;1.65;;;;;;;;;;6252643;23;20638;-86
2021/01/12 06:23:57;;;;;;;4.43;1.23;;;;;;;;;;6226150;23;20079;-86
2021/01/12 06:26:25;;;;;;;2.72;0.95;;;;;;;;;;6231956;23;20035;-86
2021/01/12 06:28:51;;;;;;;3.40;1.23;;;;;;;;;;6229733;23;20365;-88
2021/01/12 06:31:18;;;;;;;4.05;1.40;;;;;;;;;;6237221;23;20038;-87
2021/01/12 06:33:55;;;;;;;7.22;2.10;;;;;;;;;;6227248;23;20417;-87
2021/01/12 06:36:23;;;;;;;7.73;1.87;;;;;;;;;;6228210;23;20056;-87
2021/01/12 06:38:51;;;;;;;5.63;1.95;;;;;;;;;;6251017;23;20421;-88
2021/01/12 06:41:21;;;;;;;4.88;1.45;;;;;;;;;;6221439;23;20051;-87
2021/01/12 06:43:52;;;;;;;7.50;2.10;;;;;;;;;;6222901;23;20051;-88
2021/01/12 06:46:18;;;;;;;5.97;1.70;;;;;;;;;;6247325;23;20221;-87
2021/01/12 06:48:44;;;;;;;5.80;1.20;;;;;;;;;;6224428;23;20390;-87
2021/01/12 06:51:14;;;;;;;2.58;1.10;;;;;;;;;;6225629;23;20039;-88
2021/01/12 06:53:46;;;;;;;6.40;0.93;;;;;;;;;;6251693;23;20051;-88
2021/01/12 06:56:13;;;;;;;3.53;0.50;;;;;;;;;;6224429;23;20042;-89
2021/01/12 06:58:45;;;;;;;2.30;0.40;;;;;;;;;;6253506;23;20440;-88
2021/01/12 07:01:19;;;;;;;7.38;0.63;;;;;;;;;;6225926;23;20024;-89
2021/01/12 07:03:48;;;;;;;4.35;0.50;;;;;;;;;;6256338;23;20031;-90
2021/01/12 07:06:23;;;;;;;3.25;0.70;;;;;;;;;;6252751;23;20071;-88
2021/01/12 07:08:55;;;;;;;4.80;1.02;;;;;;;;;;6253069;23;20036;-89
2021/01/12 07:11:22;;;;;;;4.85;0.80;;;;;;;;;;6230629;23;20177;-88
2021/01/12 07:13:55;;;;;;;6.03;1.02;;;;;;;;;;6233473;23;20028;-88
2021/01/12 07:16:29;;;;;;;8.93;0.70;;;;;;;;;;6229507;23;20209;-87
2021/01/12 07:18:57;;;;;;;6.82;0.88;;;;;;;;;;6229659;23;20086;-89
2021/01/12 07:21:39;;;;;;;6.63;0.85;;;;;;;;;;6232951;23;20160;-88
2021/01/12 07:24:19;;;;;;;7.90;1.33;;;;;;;;;;6230633;23;20039;-89
2021/01/12 07:26:55;;;;;;;8.23;1.08;;;;;;;;;;6253952;23;20104;-90
2021/01/12 07:29:21;;;;;;;;;;;;;;;;;;6228932;23;20043;-89
2021/01/12 07:32:00;;;;;;;4.93;0.80;;;;;;;;;;6254810;23;19963;-88
2021/01/12 07:34:42;;;;;;;8.13;1.20;;;;;;;;;;6254360;23;20028;-88
2021/01/12 07:37:12;;;;;;;10.63;1.77;;;;;;;;;;6225775;23;20374;-89
2021/01/12 07:39:40;;;;;;;5.38;0.75;;;;;;;;;;6252561;23;20024;-87
2021/01/12 07:42:13;;;;;;;5.00;0.98;;;;;;;;;;6252604;23;20063;-86
2021/01/12 07:44:55;;;;;;;6.22;0.88;;;;;;;;;;6250271;23;20036;-87
2021/01/12 07:50:36;;;;;;;10.25;1.48;;;;;;;;;;6251603;23;20213;-87
2021/01/12 07:53:15;;;;;;;6.55;1.55;;;;;;;;;;6229272;23;20080;-87
2021/01/12 07:55:57;;;;;;;4.35;0.88;;;;;;;;;;6228906;23;20082;-88
2021/01/12 07:58:25;;;;;;;6.72;1.13;;;;;;;;;;6229201;23;20035;-88
2021/01/12 08:00:55;;;;;;;13.55;1.63;;;;;;;;;;6229922;23;20024;-87
2021/01/12 08:03:35;;;;;;;15.57;1.60;;;;;;;;;;6232149;23;20054;-87
2021/01/12 08:06:08;;;;;;;9.75;1.48;;;;;;;;;;6233521;23;20046;-87
2021/01/12 08:08:36;;;;;;;12.55;2.67;;;;;;;;;;6256336;23;20185;-87
2021/01/12 08:11:02;;;;;;;9.68;1.98;;;;;;;;;;6233274;23;20024;-87
2021/01/12 08:13:30;;;;;;;12.82;2.83;;;;;;;;;;6265848;23;20031;-86
2021/01/12 08:16:46;;;;;;;14.65;3.00;;;;;;;;;;6240194;23;20028;-86
2021/01/12 08:19:29;;;;;;;13.55;2.95;;;;;;;;;;6195801;23;20020;-86
2021/01/12 08:21:57;;;;;;;14.55;2.22;;;;;;;;;;6230230;23;20154;-87
2021/01/12 08:24:34;;;;;;;11.60;1.60;;;;;;;;;;6235071;23;20038;-87
2021/01/12 08:27:18;;;;;;;7.93;1.98;;;;;;;;;;6256287;23;20148;-87
2021/01/12 08:30:18;;;;;;;11.23;1.98;;;;;;;;;;6235900;23;20083;-87
2021/01/12 08:33:18;;;;;;;9.95;1.90;;;;;;;;;;6243936;23;20047;-88
2021/01/12 08:36:07;;;;;;;9.77;1.83;;;;;;;;;;6267412;23;20024;-88
2021/01/12 08:38:58;;;;;;;12.05;1.40;;;;;;;;;;6239760;23;20016;-88
2021/01/12 08:41:27;;;;;;;11.18;1.55;;;;;;;;;;6236722;23;20085;-87
2021/01/12 08:44:27;;;;;;;6.50;1.05;;;;;;;;;;6246830;22;20024;-87
2021/01/12 08:47:11;;;;;;;7.72;1.52;;;;;;;;;;6244823;23;20024;-88
2021/01/12 08:50:00;;;;;;;13.02;0.98;;;;;;;;;;6238724;23;20031;-88
2021/01/12 08:52:42;;;;;;;;;;;;;;;;;;;;;
2021/01/12 08:55:29;;;;;;;14.63;1.63;;;;;;;;;;6267935;23;20030;-88
2021/01/12 08:58:07;;;;;;;8.63;1.00;;;;;;;;;;6257526;23;20023;-88
2021/01/12 09:00:54;;;;;;;9.13;1.58;;;;;;;;;;6236455;23;20024;-88
2021/01/12 09:03:30;;;;;;;7.72;1.33;;;;;;;;;;6235352;23;20319;-88
2021/01/12 09:06:22;;;;;;;6.18;1.20;;;;;;;;;;6267549;22;20036;-88
2021/01/12 09:09:31;;;;;;;6.88;1.17;;;;;;;;;;6238483;23;20036;-88
2021/01/12 09:12:09;;;;;;;10.00;2.20;;;;;;;;;;6235200;23;20035;-88
2021/01/12 09:14:49;;;;;;;4.95;1.05;;;;;;;;;;6237008;23;20054;-88
2021/01/12 09:17:47;;;;;;;8.23;1.08;;;;;;;;;;6238259;23;20050;-89
2021/01/12 09:20:40;;;;;;;13.30;1.58;;;;;;;;;;6227171;23;20000;-87
2021/01/12 09:23:18;;;;;;;11.70;1.83;;;;;;;;;;6235869;23;20035;-89
2021/01/12 09:26:10;;;;;;;5.75;0.98;;;;;;;;;;6235364;23;20024;-88
2021/01/12 09:28:42;;;;;;;7.47;1.17;;;;;;;;;;6231510;23;20043;-88
2021/01/12 09:31:47;;;;;;;8.25;1.15;;;;;;;;;;6238784;23;20070;-88
2021/01/12 09:34:22;;;;;;;10.93;1.40;;;;;;;;;;6229169;23;20101;-89
2021/01/12 09:36:51;;;;;;;10.98;1.15;;;;;;;;;;6229751;23;20268;-88
2021/01/12 09:39:22;;;;;;;11.70;1.25;;;;;;;;;;6230383;23;20024;-88
2021/01/12 09:41:54;;;;;;;8.85;1.20;;;;;;;;;;6227792;23;20028;-87
2021/01/12 09:44:26;;;;;;;7.82;1.25;;;;;;;;;;6231566;23;20040;-87
2021/01/12 09:46:59;;;;;;;8.00;1.42;;;;;;;;;;6230552;23;20032;-88
2021/01/12 09:49:32;;;;;;;15.65;1.60;;;;;;;;;;6230936;23;20028;-88
2021/01/12 09:52:17;;;;;;;12.38;1.60;;;;;;;;;;6230693;23;20055;-88
2021/01/12 09:54:45;;;;;;;12.37;2.00;;;;;;;;;;6228247;23;20044;-89
2021/01/12 09:57:15;;;;;;;8.05;2.03;;;;;;;;;;6254916;23;20474;-88
2021/01/12 09:59:44;;;;;;;12.38;1.55;;;;;;;;;;6258570;22;20039;-88
2021/01/12 10:02:11;;;;;;;12.15;1.42;;;;;;;;;;6233265;23;20052;-87
2021/01/12 10:04:38;;;;;;;8.80;1.73;;;;;;;;;;6231501;23;20039;-88
2021/01/12 10:07:05;;;;;;;11.77;1.58;;;;;;;;;;6262940;22;20032;-87
2021/01/12 10:09:37;;;;;;;8.35;1.27;;;;;;;;;;6231914;23;20036;-88
2021/01/12 10:12:05;;;;;;;8.68;1.45;;;;;;;;;;6258359;23;20028;-88
2021/01/12 10:14:33;;;;;;;12.35;1.90;;;;;;;;;;6255051;23;20154;-89
2021/01/12 10:17:14;;;;;;;6.70;1.85;;;;;;;;;;6236844;22;20016;-88
2021/01/12 10:19:51;;;;;;;9.35;1.88;;;;;;;;;;6241249;23;20056;-89
2021/01/12 10:22:18;;;;;;;8.27;1.50;;;;;;;;;;6240036;23;20016;-88
2021/01/12 10:24:50;;;;;;;8.02;1.25;;;;;;;;;;6240003;23;20028;-89
2021/01/12 10:27:20;;;;;;;9.05;1.75;;;;;;;;;;6239240;23;20160;-88
2021/01/12 10:29:48;;;;;;;11.07;1.65;;;;;;;;;;6259096;23;20036;-88
2021/01/12 10:32:15;;;;;;;11.40;1.80;;;;;;;;;;6234914;23;20027;-89
2021/01/12 10:34:45;;;;;;;10.40;1.50;;;;;;;;;;6229579;23;20028;-89
2021/01/12 10:37:15;;;;;;;16.33;2.08;;;;;;;;;;6229235;23;20047;-89
2021/01/12 10:39:42;;;;;;;9.80;1.63;;;;;;;;;;6227059;23;20373;-89
2021/01/12 10:42:14;;;;;;;9.05;1.50;;;;;;;;;;6229437;23;20274;-90
2021/01/12 10:44:43;;;;;;;7.15;1.70;;;;;;;;;;6254590;23;20028;-90
2021/01/12 10:47:12;;;;;;;9.48;1.63;;;;;;;;;;6255184;23;20055;-88
2021/01/12 10:49:39;;;;;;;10.45;1.95;;;;;;;;;;6227550;23;20028;-90
2021/01/12 10:52:09;;;;;;;14.38;1.80;;;;;;;;;;6254383;23;20032;-90
2021/01/12 10:54:36;;;;;;;10.05;1.67;;;;;;;;;;6254193;23;20046;-90
2021/01/12 10:57:07;;;;;;;9.00;1.50;;;;;;;;;;6228339;23;20024;-90
2021/01/12 10:59:33;;;;;;;8.77;1.70;;;;;;;;;;6227349;23;20038;-90
2021/01/12 11:02:02;;;;;;;16.85;1.85;;;;;;;;;;6231151;23;20044;-89
2021/01/12 11:04:44;;;;;;;5.10;1.40;;;;;;;;;;6261862;23;20024;-90
2021/01/12 11:07:12;;;;;;;5.85;1.38;;;;;;;;;;6258259;23;20044;-88
2021/01/12 11:09:39;;;;;;;8.40;1.60;;;;;;;;;;6260457;23;20024;-89
2021/01/12 11:12:38;;;;;;;8.18;1.42;;;;;;;;;;6261667;23;20016;-89
2021/01/12 11:15:08;;;;;;;9.00;1.30;;;;;;;;;;6233369;23;20010;-90
2021/01/12 11:17:35;;;;;;;9.02;1.77;;;;;;;;;;6260959;23;20055;-89
2021/01/12 11:20:05;;;;;;;8.05;1.60;;;;;;;;;;6238256;23;20043;-89
2021/01/12 11:22:39;;;;;;;6.50;1.70;;;;;;;;;;6233890;23;20024;-89
2021/01/12 11:25:06;;;;;;;7.25;1.65;;;;;;;;;;6251774;22;20086;-89
2021/01/12 11:27:35;;;;;;;10.30;1.80;;;;;;;;;;6250188;23;20039;-90
2021/01/12 11:30:03;;;;;;;5.78;1.13;;;;;;;;;;6252020;23;20488;-89
2021/01/12 11:32:33;;;;;;;10.57;1.77;;;;;;;;;;6248810;23;20035;-89
2021/01/12 11:35:01;;;;;;;4.07;1.30;;;;;;;;;;6222245;23;20024;-89
2021/01/12 11:37:33;;;;;;;7.13;1.52;;;;;;;;;;6249309;23;20055;-88
2021/01/12 11:40:02;;;;;;;6.63;1.45;;;;;;;;;;6221094;23;20028;-89
2021/01/12 11:42:28;;;;;;;10.30;1.15;;;;;;;;;;6247970;23;20024;-88
2021/01/12 11:44:54;;;;;;;5.90;1.55;;;;;;;;;;6247836;23;20016;-88
2021/01/12 11:47:20;;;;;;;7.88;1.00;;;;;;;;;;6243554;23;20087;-88
2021/01/12 11:49:53;;;;;;;6.47;0.95;;;;;;;;;;6246475;23;20034;-88
2021/01/12 11:52:19;;;;;;;11.13;1.20;;;;;;;;;;6245001;23;20028;-88
2021/01/12 11:54:45;;;;;;;7.93;1.25;;;;;;;;;;6216559;23;20287;-87
2021/01/12 11:57:15;;;;;;;8.52;1.77;;;;;;;;;;6247869;23;20024;-88
2021/01/12 11:59:41;;;;;;;6.45;1.38;;;;;;;;;;6235965;23;20080;-89
2021/01/12 12:02:07;;;;;;;9.23;1.88;;;;;;;;;;6259892;23;20212;-88
2021/01/12 12:04:39;;;;;;;8.32;1.77;;;;;;;;;;6234053;23;20016;-87
2021/01/12 12:07:05;;;;;;;5.47;1.27;;;;;;;;;;6255197;22;20055;-87
2021/01/12 12:09:32;;;;;;;6.07;1.10;;;;;;;;;;6232450;23;20035;-88
2021/01/12 12:12:00;;;;;;;4.75;1.85;;;;;;;;;;6228229;23;20028;-88
2021/01/12 12:14:28;;;;;;;3.80;1.20;;;;;;;;;;6242110;23;20028;-87
2021/01/12 12:17:15;;;;;;;5.00;1.00;;;;;;;;;;6220371;23;20024;-87
2021/01/12 12:19:43;;;;;;;4.53;0.93;;;;;;;;;;6226560;23;20015;-88
2021/01/12 12:22:10;;;;;;;3.70;0.80;;;;;;;;;;6234232;23;20052;-87
2021/01/12 12:24:36;;;;;;;4.75;1.02;;;;;;;;;;6250963;23;20199;-87
2021/01/12 12:27:03;;;;;;;7.97;1.20;;;;;;;;;;6220082;23;20031;-87
2021/01/12 12:29:30;;;;;;;6.75;1.20;;;;;;;;;;6216505;23;20093;-87
2021/01/12 12:32:08;;;;;;;4.50;1.00;;;;;;;;;;6217704;23;20036;-87
2021/01/12 12:34:35;;;;;;;9.45;1.30;;;;;;;;;;6247589;23;20488;-88
2021/01/12 12:37:10;;;;;;;6.57;0.95;;;;;;;;;;6249823;23;20054;-85
2021/01/12 12:39:42;;;;;;;4.03;0.93;;;;;;;;;;6243079;23;20047;-86
2021/01/12 12:42:08;;;;;;;7.55;0.90;;;;;;;;;;6220233;23;20032;-88
2021/01/12 12:44:37;;;;;;;4.68;1.27;;;;;;;;;;6219456;23;20284;-88
2021/01/12 12:47:06;;;;;;;6.45;1.10;;;;;;;;;;6216760;23;20028;-87
2021/01/12 12:49:33;;;;;;;6.25;0.95;;;;;;;;;;6245703;23;20079;-87
2021/01/12 12:51:59;;;;;;;3.92;0.65;;;;;;;;;;6250032;23;20008;-88
2021/01/12 12:54:31;;;;;;;4.18;0.70;;;;;;;;;;6244823;23;20212;-87
2021/01/12 12:56:59;;;;;;;5.20;0.88;;;;;;;;;;6217675;23;20047;-87
2021/01/12 12:59:31;;;;;;;4.30;0.73;;;;;;;;;;6244883;23;20035;-86
2021/01/12 13:01:58;;;;;;;27.70;3.35;;;;;;;;;;6219731;23;20024;-86
2021/01/12 13:04:24;;;;;;;6.97;1.23;;;;;;;;;;6221378;23;20146;-87
2021/01/12 13:06:53;;;;;;;11.45;3.03;;;;;;;;;;6221051;23;20027;-87
2021/01/12 13:09:27;;;;;;;6.72;1.20;;;;;;;;;;6221661;23;20118;-86
2021/01/12 13:11:54;;;;;;;6.75;1.02;;;;;;;;;;6218940;23;20051;-86
2021/01/12 13:14:22;;;;;;;3.85;0.90;;;;;;;;;;6247361;23;20024;-86
2021/01/12 13:16:50;;;;;;;7.13;1.27;;;;;;;;;;6223561;23;20034;-87
2021/01/12 13:19:17;;;;;;;7.05;1.20;;;;;;;;;;6244494;23;20080;-87
2021/01/12 13:21:55;;;;;;;9.02;0.98;;;;;;;;;;6217954;23;20027;-86
2021/01/12 13:24:34;;;;;;;9.65;1.65;;;;;;;;;;6243966;23;20024;-86
2021/01/12 13:27:00;;;;;;;8.20;1.20;;;;;;;;;;6243670;23;20039;-86
2021/01/12 13:29:27;;;;;;;5.40;1.35;;;;;;;;;;6244159;23;20295;-87
2021/01/12 13:31:53;;;;;;;7.70;0.98;;;;;;;;;;6247180;23;20027;-87
2021/01/12 13:34:23;;;;;;;5.60;1.10;;;;;;;;;;6245349;23;20063;-87
2021/01/12 13:36:51;;;;;;;5.45;1.48;;;;;;;;;;6222381;23;20024;-86
2021/01/12 13:39:18;;;;;;;9.95;1.30;;;;;;;;;;6219012;23;20191;-87
2021/01/12 13:41:49;;;;;;;5.28;1.00;;;;;;;;;;6243614;23;20030;-87
2021/01/12 13:44:15;;;;;;;10.80;0.98;;;;;;;;;;6217054;23;20406;-86
2021/01/12 13:46:46;;;;;;;13.63;1.33;;;;;;;;;;6247244;23;20086;-86
2021/01/12 13:49:18;;;;;;;14.00;1.67;;;;;;;;;;6244893;23;20030;-86
2021/01/12 13:51:45;;;;;;;5.47;0.90;;;;;;;;;;6246005;23;20182;-86
2021/01/12 13:54:14;;;;;;;7.90;1.08;;;;;;;;;;6243283;23;20396;-87
2021/01/12 13:56:44;;;;;;;11.93;1.73;;;;;;;;;;6240351;23;20290;-87
2021/01/12 13:59:13;;;;;;;10.25;1.10;;;;;;;;;;6217654;23;20103;-87
2021/01/12 14:01:42;;;;;;;10.00;1.98;;;;;;;;;;6243138;23;20028;-87
2021/01/12 14:04:11;;;;;;;8.75;1.05;;;;;;;;;;6191968;23;20028;-87
2021/01/12 14:06:43;;;;;;;9.20;1.15;;;;;;;;;;6244924;23;20038;-87
2021/01/12 14:09:10;;;;;;;8.50;1.35;;;;;;;;;;6241718;23;20071;-87
2021/01/12 14:11:40;;;;;;;8.13;1.42;;;;;;;;;;6215603;23;20180;-87
2021/01/12 14:14:12;;;;;;;8.80;1.20;;;;;;;;;;6244167;23;20055;-87
2021/01/12 14:16:44;;;;;;;7.78;1.10;;;;;;;;;;6216316;23;20027;-87
2021/01/12 14:19:17;;;;;;;7.13;1.15;;;;;;;;;;6211259;23;20169;-87
2021/01/12 14:21:47;;;;;;;9.32;1.45;;;;;;;;;;6239908;23;20071;-86
2021/01/12 14:24:14;;;;;;;8.48;1.00;;;;;;;;;;6214078;23;20194;-86
2021/01/12 14:26:48;;;;;;;8.02;1.20;;;;;;;;;;6214304;23;20190;-86
2021/01/12 14:29:14;;;;;;;11.63;1.40;;;;;;;;;;6240435;23;20035;-86
2021/01/12 14:31:42;;;;;;;6.32;1.35;;;;;;;;;;6212825;23;20271;-86
2021/01/12 14:34:09;;;;;;;10.68;1.30;;;;;;;;;;6212876;23;20192;-86
2021/01/12 14:36:41;;;;;;;5.57;2.00;;;;;;;;;;6241661;23;20028;-86
2021/01/12 14:39:20;;;;;;;11.82;1.75;;;;;;;;;;6217522;23;20047;-86
2021/01/12 14:41:48;;;;;;;6.53;1.00;;;;;;;;;;6241683;23;20035;-86
2021/01/12 14:44:14;;;;;;;4.35;1.00;;;;;;;;;;6216259;23;20079;-86
2021/01/12 14:46:46;;;;;;;10.73;0.90;;;;;;;;;;6242884;23;20194;-85
2021/01/12 14:49:12;;;;;;;7.65;0.95;;;;;;;;;;6215746;23;20017;-85
2021/01/12 14:51:41;;;;;;;6.47;1.05;;;;;;;;;;6236870;23;20546;-82
2021/01/12 14:54:11;;;;;;;7.15;0.88;;;;;;;;;;6209522;23;20028;-82
2021/01/12 14:56:37;;;;;;;6.38;1.20;;;;;;;;;;6237818;23;20079;-83
2021/01/12 14:59:11;;;;;;;4.30;0.88;;;;;;;;;;6250711;23;20136;-83
2021/01/12 15:01:41;;;;;;;27.60;6.15;;;;;;;;;;6230811;23;20136;-84
2021/01/12 15:04:09;;;;;;;5.65;1.25;;;;;;;;;;6219596;23;20209;-84
2021/01/12 15:06:39;;;;;;;12.30;2.00;;;;;;;;;;6221635;23;20028;-84
2021/01/12 15:09:07;;;;;;;10.98;2.10;;;;;;;;;;6217173;23;20044;-84